sensor_id;sensor_type;location;lat;lon;timestamp;temperature;humidity
23769;DHT22;12064;50.890;5.424;2023-04-07T00:03:02;17.20;80.80
23769;DHT22;12064;50.890;5.424;2023-04-07T00:11:56;17.10;80.90
23769;DHT22;12064;50.890;5.424;2023-04-07T00:20:46;17.10;81.00
23769;DHT22;12064;50.890;5.424;2023-04-07T00:29:37;17.10;81.20
23769;DHT22;12064;50.890;5.424;2023-04-07T00:38:28;17.10;81.10
23769;DHT22;12064;50.890;5.424;2023-04-07T00:47:19;17.10;81.10
23769;DHT22;12064;50.890;5.424;2023-04-07T00:56:09;17.20;81.20
23769;DHT22;12064;50.890;5.424;2023-04-07T01:13:54;17.10;81.40
23769;DHT22;12064;50.890;5.424;2023-04-07T01:22:55;17.10;81.40
23769;DHT22;12064;50.890;5.424;2023-04-07T01:31:47;17.10;81.50
23769;DHT22;12064;50.890;5.424;2023-04-07T01:40:40;17.10;81.50
23769;DHT22;12064;50.890;5.424;2023-04-07T01:49:31;17.10;81.60
23769;DHT22;12064;50.890;5.424;2023-04-07T01:58:23;17.00;81.60
23769;DHT22;12064;50.890;5.424;2023-04-07T02:07:20;17.10;81.80
23769;DHT22;12064;50.890;5.424;2023-04-07T02:16:13;17.00;82.70
23769;DHT22;12064;50.890;5.424;2023-04-07T02:25:27;17.00;81.90
23769;DHT22;12064;50.890;5.424;2023-04-07T02:34:18;17.00;82.10
23769;DHT22;12064;50.890;5.424;2023-04-07T02:43:09;17.00;82.00
23769;DHT22;12064;50.890;5.424;2023-04-07T02:52:00;17.00;81.80
23769;DHT22;12064;50.890;5.424;2023-04-07T03:00:50;17.00;82.00
23769;DHT22;12064;50.890;5.424;2023-04-07T03:09:41;17.00;82.00
23769;DHT22;12064;50.890;5.424;2023-04-07T03:18:32;17.00;82.00
23769;DHT22;12064;50.890;5.424;2023-04-07T03:27:22;17.00;82.10
23769;DHT22;12064;50.890;5.424;2023-04-07T03:36:13;17.00;82.40
23769;DHT22;12064;50.890;5.424;2023-04-07T03:45:04;17.00;82.10
23769;DHT22;12064;50.890;5.424;2023-04-07T03:53:54;17.00;82.30
23769;DHT22;12064;50.890;5.424;2023-04-07T04:02:45;17.00;82.50
23769;DHT22;12064;50.890;5.424;2023-04-07T04:11:37;17.00;82.70
23769;DHT22;12064;50.890;5.424;2023-04-07T04:20:28;17.00;82.60
23769;DHT22;12064;50.890;5.424;2023-04-07T04:29:19;17.00;82.80
23769;DHT22;12064;50.890;5.424;2023-04-07T04:38:10;17.00;83.00
23769;DHT22;12064;50.890;5.424;2023-04-07T04:47:00;17.00;82.90
23769;DHT22;12064;50.890;5.424;2023-04-07T04:55:51;17.00;82.80
23769;DHT22;12064;50.890;5.424;2023-04-07T05:04:42;17.00;82.90
23769;DHT22;12064;50.890;5.424;2023-04-07T05:13:33;17.00;83.10
23769;DHT22;12064;50.890;5.424;2023-04-07T05:22:23;17.00;83.10
23769;DHT22;12064;50.890;5.424;2023-04-07T05:31:14;17.00;83.00
23769;DHT22;12064;50.890;5.424;2023-04-07T05:40:05;17.10;83.00
23769;DHT22;12064;50.890;5.424;2023-04-07T05:48:56;17.00;82.70
23769;DHT22;12064;50.890;5.424;2023-04-07T05:57:46;17.00;82.50
23769;DHT22;12064;50.890;5.424;2023-04-07T06:06:37;17.00;82.10
23769;DHT22;12064;50.890;5.424;2023-04-07T06:15:28;17.00;81.60
23769;DHT22;12064;50.890;5.424;2023-04-07T06:24:18;16.80;80.80
23769;DHT22;12064;50.890;5.424;2023-04-07T06:33:11;16.70;82.40
23769;DHT22;12064;50.890;5.424;2023-04-07T06:42:02;17.00;81.20
23769;DHT22;12064;50.890;5.424;2023-04-07T06:50:53;16.90;81.10
23769;DHT22;12064;50.890;5.424;2023-04-07T06:59:43;17.00;81.30
23769;DHT22;12064;50.890;5.424;2023-04-07T07:08:34;17.10;81.20
23769;DHT22;12064;50.890;5.424;2023-04-07T07:17:25;17.00;81.40
23769;DHT22;12064;50.890;5.424;2023-04-07T07:26:15;17.00;81.40
23769;DHT22;12064;50.890;5.424;2023-04-07T07:35:06;17.10;81.50
23769;DHT22;12064;50.890;5.424;2023-04-07T07:43:57;17.10;81.40
23769;DHT22;12064;50.890;5.424;2023-04-07T07:52:47;17.10;81.40
23769;DHT22;12064;50.890;5.424;2023-04-07T08:01:38;17.20;81.10
23769;DHT22;12064;50.890;5.424;2023-04-07T08:10:29;17.30;80.50
23769;DHT22;12064;50.890;5.424;2023-04-07T08:19:19;17.40;80.30
23769;DHT22;12064;50.890;5.424;2023-04-07T08:28:10;17.30;80.50
23769;DHT22;12064;50.890;5.424;2023-04-07T08:37:01;17.30;80.60
23769;DHT22;12064;50.890;5.424;2023-04-07T08:45:55;17.30;80.40
23769;DHT22;12064;50.890;5.424;2023-04-07T08:54:46;17.40;80.20
23769;DHT22;12064;50.890;5.424;2023-04-07T09:03:37;17.40;80.20
23769;DHT22;12064;50.890;5.424;2023-04-07T09:12:29;17.50;80.10
23769;DHT22;12064;50.890;5.424;2023-04-07T09:21:20;17.50;79.90
23769;DHT22;12064;50.890;5.424;2023-04-07T09:30:12;17.50;79.90
23769;DHT22;12064;50.890;5.424;2023-04-07T09:39:07;17.60;79.80
23769;DHT22;12064;50.890;5.424;2023-04-07T09:47:58;17.60;79.80
23769;DHT22;12064;50.890;5.424;2023-04-07T09:56:48;17.50;79.70
23769;DHT22;12064;50.890;5.424;2023-04-07T10:05:39;17.60;79.80
23769;DHT22;12064;50.890;5.424;2023-04-07T10:14:31;17.60;79.70
23769;DHT22;12064;50.890;5.424;2023-04-07T10:23:28;17.60;79.70
23769;DHT22;12064;50.890;5.424;2023-04-07T10:32:21;17.60;80.20
23769;DHT22;12064;50.890;5.424;2023-04-07T10:41:31;17.60;80.10
23769;DHT22;12064;50.890;5.424;2023-04-07T10:50:29;17.70;80.20
23769;DHT22;12064;50.890;5.424;2023-04-07T10:59:20;17.70;80.30
23769;DHT22;12064;50.890;5.424;2023-04-07T11:08:39;17.70;80.10
23769;DHT22;12064;50.890;5.424;2023-04-07T11:17:31;17.70;80.10
23769;DHT22;12064;50.890;5.424;2023-04-07T11:26:22;17.70;80.10
23769;DHT22;12064;50.890;5.424;2023-04-07T11:35:13;17.70;80.30
23769;DHT22;12064;50.890;5.424;2023-04-07T11:44:08;17.80;80.20
23769;DHT22;12064;50.890;5.424;2023-04-07T11:52:59;17.80;80.70
23769;DHT22;12064;50.890;5.424;2023-04-07T12:01:51;17.80;80.90
23769;DHT22;12064;50.890;5.424;2023-04-07T12:10:42;17.80;81.30
23769;DHT22;12064;50.890;5.424;2023-04-07T12:19:32;17.80;81.30
23769;DHT22;12064;50.890;5.424;2023-04-07T12:28:24;17.80;81.00
23769;DHT22;12064;50.890;5.424;2023-04-07T12:37:15;17.80;81.20
23769;DHT22;12064;50.890;5.424;2023-04-07T12:46:06;17.90;80.90
23769;DHT22;12064;50.890;5.424;2023-04-07T12:54:56;17.90;80.90
23769;DHT22;12064;50.890;5.424;2023-04-07T13:03:47;17.90;80.90
23769;DHT22;12064;50.890;5.424;2023-04-07T13:12:38;17.90;80.70
23769;DHT22;12064;50.890;5.424;2023-04-07T13:21:30;17.80;81.40
23769;DHT22;12064;50.890;5.424;2023-04-07T13:30:21;17.90;81.40
23769;DHT22;12064;50.890;5.424;2023-04-07T13:39:12;17.90;81.40
23769;DHT22;12064;50.890;5.424;2023-04-07T13:48:02;18.00;81.40
23769;DHT22;12064;50.890;5.424;2023-04-07T13:56:53;18.00;81.40
23769;DHT22;12064;50.890;5.424;2023-04-07T14:05:44;18.00;81.60
23769;DHT22;12064;50.890;5.424;2023-04-07T14:14:34;18.00;81.40
23769;DHT22;12064;50.890;5.424;2023-04-07T14:23:26;18.00;81.50
23769;DHT22;12064;50.890;5.424;2023-04-07T14:32:17;18.10;81.40
23769;DHT22;12064;50.890;5.424;2023-04-07T14:41:08;18.00;81.50
23769;DHT22;12064;50.890;5.424;2023-04-07T14:50:00;18.00;81.60
23769;DHT22;12064;50.890;5.424;2023-04-07T14:58:50;18.00;82.40
23769;DHT22;12064;50.890;5.424;2023-04-07T15:07:41;18.10;82.60
23769;DHT22;12064;50.890;5.424;2023-04-07T15:16:32;18.10;82.60
23769;DHT22;12064;50.890;5.424;2023-04-07T15:25:22;18.10;82.40
23769;DHT22;12064;50.890;5.424;2023-04-07T15:34:13;18.20;82.40
23769;DHT22;12064;50.890;5.424;2023-04-07T15:43:04;18.10;82.20
23769;DHT22;12064;50.890;5.424;2023-04-07T15:51:56;18.10;82.10
23769;DHT22;12064;50.890;5.424;2023-04-07T16:00:46;18.10;81.80
23769;DHT22;12064;50.890;5.424;2023-04-07T16:09:37;18.10;81.80
23769;DHT22;12064;50.890;5.424;2023-04-07T16:18:28;18.10;81.70
23769;DHT22;12064;50.890;5.424;2023-04-07T16:27:19;18.10;81.70
23769;DHT22;12064;50.890;5.424;2023-04-07T16:36:10;18.10;81.60
23769;DHT22;12064;50.890;5.424;2023-04-07T16:45:01;18.10;81.50
23769;DHT22;12064;50.890;5.424;2023-04-07T16:53:52;18.10;81.50
23769;DHT22;12064;50.890;5.424;2023-04-07T17:02:43;18.10;81.40
23769;DHT22;12064;50.890;5.424;2023-04-07T17:11:33;18.10;81.40
23769;DHT22;12064;50.890;5.424;2023-04-07T17:20:24;18.10;81.30
23769;DHT22;12064;50.890;5.424;2023-04-07T17:29:15;18.10;81.30
23769;DHT22;12064;50.890;5.424;2023-04-07T17:38:06;18.10;81.30
23769;DHT22;12064;50.890;5.424;2023-04-07T17:46:57;18.10;81.40
23769;DHT22;12064;50.890;5.424;2023-04-07T17:55:48;18.10;81.30
23769;DHT22;12064;50.890;5.424;2023-04-07T18:04:41;18.10;81.30
23769;DHT22;12064;50.890;5.424;2023-04-07T18:13:32;18.10;81.30
23769;DHT22;12064;50.890;5.424;2023-04-07T18:22:23;18.00;81.30
23769;DHT22;12064;50.890;5.424;2023-04-07T18:31:14;18.00;81.30
23769;DHT22;12064;50.890;5.424;2023-04-07T18:40:05;18.00;81.50
23769;DHT22;12064;50.890;5.424;2023-04-07T18:48:56;18.00;81.60
23769;DHT22;12064;50.890;5.424;2023-04-07T18:57:47;18.00;81.40
23769;DHT22;12064;50.890;5.424;2023-04-07T19:06:38;18.00;81.60
23769;DHT22;12064;50.890;5.424;2023-04-07T19:15:32;18.00;81.60
23769;DHT22;12064;50.890;5.424;2023-04-07T19:24:28;18.00;81.70
23769;DHT22;12064;50.890;5.424;2023-04-07T19:33:19;18.00;81.70
23769;DHT22;12064;50.890;5.424;2023-04-07T19:42:09;18.00;81.80
23769;DHT22;12064;50.890;5.424;2023-04-07T19:51:00;17.90;81.90
23769;DHT22;12064;50.890;5.424;2023-04-07T19:59:51;18.00;81.90
23769;DHT22;12064;50.890;5.424;2023-04-07T20:08:42;17.90;81.90
23769;DHT22;12064;50.890;5.424;2023-04-07T20:17:33;17.90;81.90
23769;DHT22;12064;50.890;5.424;2023-04-07T20:26:26;17.90;82.20
23769;DHT22;12064;50.890;5.424;2023-04-07T20:35:16;17.80;82.30
23769;DHT22;12064;50.890;5.424;2023-04-07T20:44:07;17.80;82.30
23769;DHT22;12064;50.890;5.424;2023-04-07T20:52:58;17.90;82.50
23769;DHT22;12064;50.890;5.424;2023-04-07T21:01:49;17.80;83.40
23769;DHT22;12064;50.890;5.424;2023-04-07T21:10:40;17.80;82.50
23769;DHT22;12064;50.890;5.424;2023-04-07T21:19:30;17.80;82.80
23769;DHT22;12064;50.890;5.424;2023-04-07T21:28:21;17.70;82.80
23769;DHT22;12064;50.890;5.424;2023-04-07T21:37:12;17.70;82.90
23769;DHT22;12064;50.890;5.424;2023-04-07T21:46:02;17.80;83.00
23769;DHT22;12064;50.890;5.424;2023-04-07T21:54:53;17.80;83.00
23769;DHT22;12064;50.890;5.424;2023-04-07T22:03:44;17.70;82.90
23769;DHT22;12064;50.890;5.424;2023-04-07T22:12:35;17.70;83.00
23769;DHT22;12064;50.890;5.424;2023-04-07T22:21:25;17.70;83.10
23769;DHT22;12064;50.890;5.424;2023-04-07T22:30:17;17.70;83.20
23769;DHT22;12064;50.890;5.424;2023-04-07T22:39:08;17.70;83.30
23769;DHT22;12064;50.890;5.424;2023-04-07T22:47:59;17.70;83.20
23769;DHT22;12064;50.890;5.424;2023-04-07T22:56:50;17.70;83.20
23769;DHT22;12064;50.890;5.424;2023-04-07T23:05:40;17.70;83.40
23769;DHT22;12064;50.890;5.424;2023-04-07T23:14:32;17.70;83.50
23769;DHT22;12064;50.890;5.424;2023-04-07T23:23:23;17.70;83.40
23769;DHT22;12064;50.890;5.424;2023-04-07T23:32:13;17.60;83.60
23769;DHT22;12064;50.890;5.424;2023-04-07T23:41:04;17.70;83.70
23769;DHT22;12064;50.890;5.424;2023-04-07T23:49:54;17.60;83.70
23769;DHT22;12064;50.890;5.424;2023-04-07T23:58:45;17.60;83.90
